Terminal Aerodrome Forecast
Issued by NWS

Home | Current Version | Previous Version | Text Only | Print | Product List | Glossary On
Versions: 1 2 3 4 5 6 7 8 9 10 11 12 13 14 15 16
796
FTUS44 KLZK 281148 CCA
TAFHOT
TAF COR
KHOT 281148Z 2812/2912 16012G20KT 6SM -RA VCTS BKN008 OVC035CB
     FM281500 22008KT P6SM VCSH BKN015 OVC050
     FM281800 34006KT P6SM VCSH BKN025 BKN050
     FM290000 VRB04KT P6SM SCT050 BKN100=

USA.gov is the U.S. government's official web portal to all federal, state and local government web resources and services.